createdAt,value
2023-11-23T00:02:09.221Z,95.18
2023-11-23T00:04:35.659Z,94.95
2023-11-23T00:07:03.609Z,94.94
2023-11-23T00:09:30.072Z,95.84
2023-11-23T00:11:56.529Z,95.91
2023-11-23T00:14:23.040Z,95.79
2023-11-23T00:16:49.495Z,96.07
2023-11-23T00:19:15.921Z,96.78
2023-11-23T00:21:42.456Z,95.89
2023-11-23T00:24:09.100Z,96.31
2023-11-23T00:26:35.607Z,96.82
2023-11-23T00:29:02.215Z,96.92
2023-11-23T00:31:28.579Z,96.38
2023-11-23T00:33:55.167Z,96.21
2023-11-23T00:36:21.654Z,96.73
2023-11-23T00:38:48.367Z,96.70
2023-11-23T00:41:14.783Z,97.33
2023-11-23T00:43:41.172Z,96.65
2023-11-23T00:46:07.725Z,96.20
2023-11-23T00:48:34.174Z,96.31
2023-11-23T00:51:00.697Z,95.96
2023-11-23T00:53:27.071Z,97.07
2023-11-23T00:55:57.995Z,96.97
2023-11-23T00:58:24.853Z,96.39
2023-11-23T01:00:51.293Z,96.90
2023-11-23T01:03:17.906Z,97.09
2023-11-23T01:05:45.093Z,97.53
2023-11-23T01:08:12.000Z,97.48
2023-11-23T01:10:38.456Z,96.34
2023-11-23T01:13:04.808Z,97.15
2023-11-23T01:15:31.278Z,97.18
2023-11-23T01:17:57.749Z,96.99
2023-11-23T01:20:24.184Z,96.28
2023-11-23T01:22:50.595Z,97.02
2023-11-23T01:25:17.098Z,97.27
2023-11-23T01:27:43.568Z,96.58
2023-11-23T01:30:10.656Z,97.22
2023-11-23T01:32:37.370Z,97.17
2023-11-23T01:35:04.329Z,97.35
2023-11-23T01:37:30.881Z,97.33
2023-11-23T01:39:58.539Z,97.27
2023-11-23T01:42:25.005Z,96.62
2023-11-23T01:44:51.448Z,97.50
2023-11-23T01:47:18.149Z,97.28
2023-11-23T01:49:46.462Z,97.86
2023-11-23T01:52:13.123Z,97.73
2023-11-23T01:54:40.235Z,97.80
2023-11-23T01:57:08.448Z,97.89
2023-11-23T01:59:36.842Z,97.54
2023-11-23T02:02:05.938Z,97.53
2023-11-23T02:04:33.076Z,98.08
2023-11-23T02:07:00.582Z,97.20
2023-11-23T02:09:27.644Z,97.80
2023-11-23T02:11:54.065Z,98.15
2023-11-23T02:14:20.468Z,98.02
2023-11-23T02:16:47.477Z,98.80
2023-11-23T02:19:13.813Z,98.59
2023-11-23T02:21:40.222Z,99.22
2023-11-23T02:24:10.950Z,98.39
2023-11-23T02:26:37.364Z,98.98
2023-11-23T02:29:05.713Z,98.36
2023-11-23T02:31:33.986Z,98.45
2023-11-23T02:34:01.485Z,99.02
2023-11-23T02:36:27.904Z,99.00
2023-11-23T02:38:54.271Z,97.91
2023-11-23T02:41:21.250Z,97.63
2023-11-23T02:43:49.802Z,97.83
2023-11-23T02:46:16.295Z,98.52
2023-11-23T02:48:42.740Z,97.48
2023-11-23T02:51:09.274Z,97.91
2023-11-23T02:53:44.284Z,98.09
2023-11-23T02:56:11.959Z,97.27
2023-11-23T02:58:40.248Z,98.16
2023-11-23T03:01:06.829Z,97.43
2023-11-23T03:03:33.330Z,97.39
2023-11-23T03:06:01.047Z,98.55
2023-11-23T03:08:28.811Z,98.37
2023-11-23T03:10:55.438Z,97.99
2023-11-23T03:13:21.956Z,98.67
2023-11-23T03:15:51.048Z,98.52
2023-11-23T03:18:17.618Z,97.52
2023-11-23T03:20:44.158Z,98.14
2023-11-23T03:23:10.687Z,97.85
2023-11-23T03:25:37.317Z,98.04
2023-11-23T03:28:05.422Z,98.61
2023-11-23T03:30:31.837Z,98.97
2023-11-23T03:32:58.231Z,98.68
2023-11-23T03:35:24.716Z,98.46
2023-11-23T03:37:51.093Z,98.49
2023-11-23T03:40:17.445Z,98.22
2023-11-23T03:42:43.823Z,99.23
2023-11-23T03:45:10.514Z,99.80
2023-11-23T03:47:37.021Z,99.68
2023-11-23T03:50:03.618Z,99.61
2023-11-23T03:52:30.011Z,99.53
2023-11-23T03:54:56.396Z,99.67
2023-11-23T03:57:22.937Z,99.43
2023-11-23T03:59:49.495Z,100.00
2023-11-23T04:02:16.062Z,99.49
2023-11-23T04:04:42.499Z,99.70
2023-11-23T04:07:08.932Z,99.95
2023-11-23T04:09:35.550Z,99.55
2023-11-23T04:12:02.654Z,99.76
2023-11-23T04:14:31.887Z,100.00
2023-11-23T04:16:58.348Z,99.44
2023-11-23T04:19:24.744Z,99.82
2023-11-23T04:21:51.174Z,99.94
2023-11-23T04:24:17.759Z,99.64
2023-11-23T04:26:44.394Z,100.00
2023-11-23T04:29:11.619Z,99.67
2023-11-23T04:31:37.973Z,100.00
2023-11-23T04:34:04.438Z,99.77
2023-11-23T04:36:30.866Z,100.00
2023-11-23T04:38:57.570Z,99.87
2023-11-23T04:41:23.996Z,99.88
2023-11-23T04:43:50.336Z,99.91
2023-11-23T04:46:17.420Z,100.00
2023-11-23T04:48:43.842Z,99.52
2023-11-23T04:51:10.342Z,99.80
2023-11-23T04:53:36.718Z,99.40
2023-11-23T04:56:03.190Z,100.00
2023-11-23T04:58:29.544Z,100.00
2023-11-23T05:00:56.365Z,100.00
2023-11-23T05:03:22.817Z,100.00
2023-11-23T05:05:49.207Z,100.00
2023-11-23T05:08:17.017Z,99.86
2023-11-23T05:10:44.362Z,99.48
2023-11-23T05:13:11.890Z,100.00
2023-11-23T05:15:38.231Z,100.00
2023-11-23T05:18:04.754Z,99.79
2023-11-23T05:20:31.311Z,100.00
2023-11-23T05:22:58.029Z,100.00
2023-11-23T05:25:24.508Z,100.00
2023-11-23T05:27:50.888Z,99.71
2023-11-23T05:30:18.493Z,99.84
2023-11-23T05:32:46.436Z,100.00
2023-11-23T05:35:13.928Z,99.84
2023-11-23T05:37:40.767Z,99.93
2023-11-23T05:40:10.540Z,99.72
2023-11-23T05:42:37.080Z,100.00
2023-11-23T05:45:03.696Z,99.21
2023-11-23T05:47:30.113Z,99.60
2023-11-23T05:49:56.717Z,99.74
2023-11-23T05:52:23.139Z,99.22
2023-11-23T05:54:49.645Z,99.47
2023-11-23T05:57:16.053Z,99.52
2023-11-23T05:59:42.503Z,99.85
2023-11-23T06:02:09.036Z,99.50
2023-11-23T06:04:35.587Z,99.55
2023-11-23T06:07:02.496Z,99.63
2023-11-23T06:09:29.777Z,100.00
2023-11-23T06:14:22.625Z,99.51
2023-11-23T06:16:48.979Z,99.08
2023-11-23T06:19:15.442Z,98.78
2023-11-23T06:21:41.781Z,99.34
2023-11-23T06:24:08.572Z,98.60
2023-11-23T06:26:35.056Z,98.85
2023-11-23T06:29:01.478Z,99.13
2023-11-23T06:31:29.021Z,99.18
2023-11-23T06:33:55.578Z,98.29
2023-11-23T06:36:22.008Z,98.17
2023-11-23T06:38:48.490Z,98.69
2023-11-23T06:41:21.831Z,97.92
2023-11-23T06:43:49.464Z,97.78
2023-11-23T06:46:17.075Z,98.28
2023-11-23T06:48:46.950Z,98.51
2023-11-23T06:51:17.099Z,99.13
2023-11-23T06:53:47.629Z,99.14
2023-11-23T06:56:15.156Z,99.20
2023-11-23T06:58:42.496Z,99.29
2023-11-23T07:01:12.456Z,98.95
2023-11-23T07:03:39.765Z,99.50
2023-11-23T07:06:06.913Z,98.59
2023-11-23T07:08:37.679Z,98.57
2023-11-23T07:11:06.016Z,97.96
2023-11-23T07:13:33.608Z,98.45
2023-11-23T07:16:03.932Z,97.71
2023-11-23T07:18:30.908Z,97.90
2023-11-23T07:20:57.775Z,97.62
2023-11-23T07:23:24.490Z,97.79
2023-11-23T07:25:51.413Z,97.12
2023-11-23T07:28:18.008Z,97.66
2023-11-23T07:30:45.208Z,96.54
2023-11-23T07:33:12.146Z,96.83
2023-11-23T07:35:39.258Z,96.89
2023-11-23T07:38:05.964Z,97.65
2023-11-23T07:40:32.824Z,97.54
2023-11-23T07:42:59.553Z,96.31
2023-11-23T07:45:26.296Z,96.63
2023-11-23T07:47:53.035Z,96.29
2023-11-23T07:50:19.650Z,96.69
2023-11-23T07:52:47.641Z,96.72
2023-11-23T07:55:16.871Z,96.63
2023-11-23T07:57:44.475Z,96.46
2023-11-23T08:00:14.370Z,95.68
2023-11-23T08:02:41.839Z,95.74
2023-11-23T08:05:09.965Z,95.08
2023-11-23T08:07:36.417Z,94.81
2023-11-23T08:10:07.174Z,94.78
2023-11-23T08:12:34.319Z,95.15
2023-11-23T08:15:00.845Z,94.50
2023-11-23T08:17:30.617Z,95.13
2023-11-23T08:19:56.998Z,94.84
2023-11-23T08:22:23.418Z,94.12
2023-11-23T08:24:49.886Z,94.52
2023-11-23T08:27:16.463Z,94.14
2023-11-23T08:29:42.976Z,93.83
2023-11-23T08:32:09.623Z,94.57
2023-11-23T08:34:36.982Z,94.96
2023-11-23T08:37:04.223Z,95.06
2023-11-23T08:39:30.693Z,94.44
2023-11-23T08:41:57.081Z,95.44
2023-11-23T08:44:23.705Z,94.82
2023-11-23T08:46:50.114Z,95.55
2023-11-23T08:49:16.841Z,95.48
2023-11-23T08:51:43.413Z,94.79
2023-11-23T08:54:10.701Z,95.08
2023-11-23T08:56:37.251Z,95.23
2023-11-23T08:59:03.807Z,95.57
2023-11-23T09:01:30.402Z,94.66
2023-11-23T09:03:57.049Z,94.85
2023-11-23T09:06:23.921Z,95.34
2023-11-23T09:08:50.669Z,95.20
2023-11-23T09:11:17.117Z,95.10
2023-11-23T09:13:44.613Z,95.36
2023-11-23T09:16:13.248Z,95.05
2023-11-23T09:18:40.712Z,94.77
2023-11-23T09:21:07.554Z,94.68
2023-11-23T09:23:34.003Z,94.56
2023-11-23T09:26:00.406Z,94.40
2023-11-23T09:28:26.899Z,94.17
2023-11-23T09:30:53.392Z,93.70
2023-11-23T09:33:20.884Z,93.94
2023-11-23T09:35:48.000Z,93.69
2023-11-23T09:38:14.607Z,93.91
2023-11-23T09:40:44.381Z,93.44
2023-11-23T09:43:11.742Z,93.25
2023-11-23T09:45:38.465Z,93.01
2023-11-23T09:48:06.723Z,93.35
2023-11-23T09:50:37.135Z,93.11
2023-11-23T09:53:07.327Z,92.99
2023-11-23T09:55:33.728Z,93.18
2023-11-23T09:58:00.156Z,93.21
2023-11-23T10:00:26.703Z,92.49
2023-11-23T10:02:59.757Z,92.38
2023-11-23T10:05:27.396Z,92.06
2023-11-23T10:07:55.316Z,91.63
2023-11-23T10:10:22.307Z,91.44
2023-11-23T10:12:50.230Z,91.76
2023-11-23T10:15:17.013Z,91.30
2023-11-23T10:17:43.588Z,91.25
2023-11-23T10:20:17.463Z,91.37
2023-11-23T10:22:45.668Z,91.34
2023-11-23T10:25:38.617Z,90.88
2023-11-23T10:28:05.522Z,90.65
2023-11-23T10:30:32.884Z,90.39
2023-11-23T10:33:00.778Z,90.60
2023-11-23T10:35:39.852Z,90.12
2023-11-23T10:38:08.111Z,89.71
2023-11-23T10:40:35.681Z,89.57
2023-11-23T10:43:02.914Z,89.39
2023-11-23T10:45:31.339Z,89.28
2023-11-23T10:47:59.830Z,89.19
2023-11-23T10:50:27.170Z,89.40
2023-11-23T10:52:58.175Z,89.24
2023-11-23T10:55:27.474Z,88.81
2023-11-23T10:57:58.579Z,89.02
2023-11-23T11:00:27.230Z,88.91
2023-11-23T11:02:58.225Z,88.50
2023-11-23T11:05:29.492Z,88.17
2023-11-23T11:08:06.918Z,88.68
2023-11-23T11:10:41.415Z,88.37
2023-11-23T11:13:11.319Z,88.51
2023-11-23T11:15:39.420Z,88.10
2023-11-23T11:18:08.695Z,88.13
2023-11-23T11:20:35.599Z,88.02
2023-11-23T11:23:02.403Z,88.05
2023-11-23T11:25:41.765Z,88.58
2023-11-23T11:28:15.113Z,88.45
2023-11-23T11:30:43.609Z,88.56
2023-11-23T11:33:15.380Z,88.15
2023-11-23T11:35:48.375Z,88.23
2023-11-23T11:38:18.697Z,88.15
2023-11-23T11:40:49.460Z,88.26
2023-11-23T11:43:16.321Z,87.90
2023-11-23T11:45:43.459Z,87.79
2023-11-23T11:48:10.514Z,87.60
2023-11-23T11:50:37.567Z,87.94
2023-11-23T11:53:06.749Z,87.42
2023-11-23T11:55:33.166Z,87.56
2023-11-23T11:57:59.781Z,87.52
2023-11-23T12:00:26.573Z,87.89
2023-11-23T12:02:53.501Z,87.81
2023-11-23T12:05:23.754Z,88.06
2023-11-23T12:07:54.345Z,88.28
2023-11-23T12:10:21.125Z,88.26
2023-11-23T12:12:48.772Z,88.54
2023-11-23T12:15:16.805Z,88.48
2023-11-23T12:17:51.218Z,88.59
2023-11-23T12:20:18.572Z,89.31
2023-11-23T12:22:47.697Z,89.69
2023-11-23T12:25:14.117Z,90.49
2023-11-23T12:27:43.698Z,90.51
2023-11-23T12:30:11.817Z,90.47
2023-11-23T12:32:38.678Z,91.25
2023-11-23T12:35:05.679Z,90.87
2023-11-23T12:37:32.234Z,91.52
2023-11-23T12:39:58.731Z,92.79
2023-11-23T12:42:25.321Z,93.26
2023-11-23T12:44:52.006Z,93.78
2023-11-23T12:47:21.471Z,93.96
2023-11-23T12:49:48.104Z,94.50
2023-11-23T12:52:15.638Z,94.66
2023-11-23T12:54:43.571Z,94.77
2023-11-23T12:57:10.491Z,94.78
2023-11-23T12:59:37.556Z,95.66
2023-11-23T13:02:04.538Z,96.00
2023-11-23T13:04:35.178Z,97.01
2023-11-23T13:07:01.954Z,96.83
2023-11-23T13:09:29.491Z,97.28
2023-11-23T13:11:57.998Z,97.29
2023-11-23T13:14:24.557Z,97.81
2023-11-23T13:16:50.975Z,97.82
2023-11-23T13:19:26.816Z,98.15
2023-11-23T13:22:02.035Z,98.06
2023-11-23T13:24:28.902Z,98.24
2023-11-23T13:26:55.422Z,98.30
2023-11-23T13:29:21.809Z,98.41
2023-11-23T13:31:50.568Z,97.87
2023-11-23T13:34:16.971Z,97.57
2023-11-23T13:36:43.869Z,98.12
2023-11-23T13:39:14.922Z,97.88
2023-11-23T13:41:41.456Z,97.42
2023-11-23T13:44:07.900Z,97.74
2023-11-23T13:46:34.686Z,98.18
2023-11-23T13:49:01.360Z,98.37
2023-11-23T13:51:31.077Z,98.63
2023-11-23T13:53:58.593Z,97.57
2023-11-23T13:56:26.317Z,98.14
2023-11-23T13:58:53.403Z,98.29
2023-11-23T14:01:20.099Z,98.11
2023-11-23T14:03:46.649Z,97.53
2023-11-23T14:06:14.692Z,97.61
2023-11-23T14:08:41.100Z,97.76
2023-11-23T14:11:07.623Z,98.52
2023-11-23T14:13:34.286Z,98.70
2023-11-23T14:16:00.849Z,99.15
2023-11-23T14:18:29.442Z,98.53
2023-11-23T14:20:56.133Z,98.29
2023-11-23T14:23:23.097Z,98.60
2023-11-23T14:25:49.582Z,98.47
2023-11-23T14:28:16.368Z,99.33
2023-11-23T14:30:46.732Z,99.47
2023-11-23T14:33:17.056Z,99.30
2023-11-23T14:35:53.172Z,98.87
2023-11-23T14:38:20.069Z,98.71
2023-11-23T14:40:47.844Z,98.88
2023-11-23T14:43:19.235Z,99.10
2023-11-23T14:45:46.470Z,99.97
2023-11-23T14:48:13.151Z,99.58
2023-11-23T14:50:40.425Z,99.30
2023-11-23T14:53:07.355Z,99.17
2023-11-23T14:55:33.944Z,99.99
2023-11-23T14:58:00.506Z,99.57
2023-11-23T15:00:27.128Z,99.21
2023-11-23T15:02:53.988Z,99.50
2023-11-23T15:05:20.673Z,99.59
2023-11-23T15:07:47.582Z,99.20
2023-11-23T15:10:19.902Z,98.95
2023-11-23T15:12:54.332Z,98.71
2023-11-23T15:15:22.107Z,98.99
2023-11-23T15:17:50.048Z,99.50
2023-11-23T15:20:17.017Z,99.46
2023-11-23T15:22:43.708Z,99.79
2023-11-23T15:25:11.631Z,99.91
2023-11-23T15:27:38.808Z,100.00
2023-11-23T15:30:06.147Z,99.68
2023-11-23T15:32:38.421Z,99.50
2023-11-23T15:35:08.515Z,99.77
2023-11-23T15:37:35.149Z,100.00
2023-11-23T15:40:01.558Z,99.30
2023-11-23T15:42:27.989Z,99.27
2023-11-23T15:44:54.361Z,99.74
2023-11-23T15:47:21.127Z,99.51
2023-11-23T15:49:48.224Z,99.80
2023-11-23T15:52:14.853Z,99.32
2023-11-23T15:54:41.598Z,99.52
2023-11-23T15:57:08.184Z,99.43
2023-11-23T15:59:34.705Z,100.00
2023-11-23T16:02:02.032Z,99.47
2023-11-23T16:04:28.686Z,99.12
2023-11-23T16:06:55.372Z,98.90
2023-11-23T16:09:24.154Z,98.61
2023-11-23T16:11:50.987Z,99.08
2023-11-23T16:14:17.449Z,98.92
2023-11-23T16:16:43.931Z,97.94
2023-11-23T16:19:11.788Z,98.55
2023-11-23T16:21:38.739Z,98.64
2023-11-23T16:24:05.981Z,97.25
2023-11-23T16:26:33.264Z,95.31
2023-11-23T16:29:01.946Z,94.47
2023-11-23T16:31:28.430Z,94.20
2023-11-23T16:33:57.276Z,92.79
2023-11-23T16:36:32.930Z,92.66
2023-11-23T16:39:05.576Z,93.08
2023-11-23T16:41:32.349Z,92.50
2023-11-23T16:43:58.758Z,92.44
2023-11-23T16:46:25.257Z,92.86
2023-11-23T16:48:51.791Z,92.77
2023-11-23T16:51:20.006Z,92.53
2023-11-23T16:53:46.625Z,92.67
2023-11-23T16:56:14.185Z,93.85
2023-11-23T16:58:40.589Z,94.13
2023-11-23T17:01:07.005Z,93.69
2023-11-23T17:03:33.637Z,93.76
2023-11-23T17:06:01.611Z,94.00
2023-11-23T17:08:31.381Z,94.21
2023-11-23T17:10:59.218Z,93.21
2023-11-23T17:13:26.276Z,93.21
2023-11-23T17:15:52.904Z,93.63
2023-11-23T17:18:21.011Z,92.56
2023-11-23T17:20:47.610Z,92.82
2023-11-23T17:23:15.829Z,91.26
2023-11-23T17:25:42.365Z,91.23
2023-11-23T17:28:08.783Z,91.05
2023-11-23T17:30:35.614Z,91.14
2023-11-23T17:33:02.165Z,90.75
2023-11-23T17:35:29.136Z,90.34
2023-11-23T17:37:55.810Z,90.24
2023-11-23T17:40:22.823Z,89.66
2023-11-23T17:42:49.312Z,89.38
2023-11-23T17:45:15.806Z,88.88
2023-11-23T17:47:45.109Z,88.74
2023-11-23T17:50:12.919Z,87.23
2023-11-23T17:52:39.833Z,88.08
2023-11-23T17:55:07.184Z,86.50
2023-11-23T17:57:35.569Z,87.14
2023-11-23T18:00:06.957Z,86.05
2023-11-23T18:02:34.514Z,85.39
2023-11-23T18:05:01.260Z,83.78
2023-11-23T18:07:27.664Z,82.66
2023-11-23T18:09:54.228Z,83.14
2023-11-23T18:12:21.327Z,82.13
2023-11-23T18:14:47.954Z,82.16
2023-11-23T18:17:14.376Z,81.10
2023-11-23T18:19:41.473Z,81.03
2023-11-23T18:22:08.985Z,81.71
2023-11-23T18:24:35.708Z,82.20
2023-11-23T18:27:07.200Z,81.40
2023-11-23T18:29:34.203Z,81.31
2023-11-23T18:32:04.477Z,82.20
2023-11-23T18:34:31.032Z,81.44
2023-11-23T18:36:57.516Z,81.21
2023-11-23T18:39:24.409Z,81.78
2023-11-23T18:41:51.031Z,80.92
2023-11-23T18:44:17.374Z,81.60
2023-11-23T18:46:45.293Z,81.08
2023-11-23T18:49:12.125Z,81.30
2023-11-23T18:51:38.929Z,82.45
2023-11-23T18:54:05.545Z,83.32
2023-11-23T18:56:32.742Z,82.93
2023-11-23T18:58:59.664Z,83.99
2023-11-23T19:01:26.150Z,83.81
2023-11-23T19:03:52.758Z,83.81
2023-11-23T19:06:19.419Z,83.56
2023-11-23T19:08:46.513Z,84.52
2023-11-23T19:11:14.934Z,83.82
2023-11-23T19:13:41.738Z,84.17
2023-11-23T19:16:11.383Z,84.17
2023-11-23T19:18:39.094Z,83.65
2023-11-23T19:21:06.788Z,83.80
2023-11-23T19:23:33.987Z,83.95
2023-11-23T19:26:01.372Z,84.36
2023-11-23T19:28:28.115Z,83.87
2023-11-23T19:30:56.332Z,84.19
2023-11-23T19:33:23.199Z,83.13
2023-11-23T19:35:50.462Z,83.52
2023-11-23T19:38:19.490Z,83.53
2023-11-23T19:40:47.208Z,83.87
2023-11-23T19:43:15.966Z,83.98
2023-11-23T19:45:43.278Z,83.49
2023-11-23T19:48:10.709Z,84.15
2023-11-23T19:50:37.629Z,84.07
2023-11-23T19:53:05.495Z,83.42
2023-11-23T19:55:34.601Z,82.90
2023-11-23T19:58:01.407Z,79.36
2023-11-23T20:00:30.008Z,78.48
2023-11-23T20:02:58.305Z,77.11
2023-11-23T20:05:26.394Z,76.67
2023-11-23T20:07:52.801Z,76.79
2023-11-23T20:10:21.852Z,77.91
2023-11-23T20:12:49.184Z,77.05
2023-11-23T20:15:15.652Z,76.94
2023-11-23T20:17:42.146Z,76.51
2023-11-23T20:20:11.078Z,77.17
2023-11-23T20:22:37.753Z,78.08
2023-11-23T20:25:05.008Z,78.45
2023-11-23T20:27:31.528Z,78.12
2023-11-23T20:29:58.926Z,78.74
2023-11-23T20:32:25.336Z,78.14
2023-11-23T20:34:51.713Z,78.50
2023-11-23T20:37:18.084Z,79.00
2023-11-23T20:39:45.138Z,79.28
2023-11-23T20:42:12.485Z,79.17
2023-11-23T20:44:39.599Z,80.03
2023-11-23T20:47:06.168Z,79.60
2023-11-23T20:49:33.231Z,80.57
2023-11-23T20:52:00.123Z,79.64
2023-11-23T20:54:26.771Z,79.10
2023-11-23T20:56:57.414Z,78.70
2023-11-23T20:59:25.304Z,77.70
2023-11-23T21:01:52.970Z,76.69
2023-11-23T21:04:24.962Z,74.60
2023-11-23T21:07:01.434Z,75.32
2023-11-23T21:09:29.371Z,74.95
2023-11-23T21:11:56.176Z,74.83
2023-11-23T21:14:24.240Z,74.69
2023-11-23T21:16:50.652Z,73.79
2023-11-23T21:19:17.164Z,74.03
2023-11-23T21:21:43.930Z,73.21
2023-11-23T21:24:11.478Z,73.38
2023-11-23T21:26:37.896Z,73.26
2023-11-23T21:29:04.446Z,72.86
2023-11-23T21:31:30.904Z,74.17
2023-11-23T21:33:59.010Z,73.79
2023-11-23T21:36:27.314Z,74.98
2023-11-23T21:38:53.755Z,75.77
2023-11-23T21:41:20.260Z,74.33
2023-11-23T21:43:46.745Z,73.96
2023-11-23T21:46:21.503Z,73.08
2023-11-23T21:48:48.967Z,73.64
2023-11-23T21:51:29.195Z,73.55
2023-11-23T21:53:57.702Z,73.66
2023-11-23T21:56:24.460Z,74.16
2023-11-23T21:58:50.896Z,75.13
2023-11-23T22:01:17.387Z,75.62
2023-11-23T22:03:44.049Z,75.51
2023-11-23T22:06:11.002Z,75.23
2023-11-23T22:08:37.494Z,75.52
2023-11-23T22:11:05.110Z,75.35
2023-11-23T22:13:31.505Z,74.98
2023-11-23T22:15:58.620Z,77.32
2023-11-23T22:18:25.203Z,76.15
2023-11-23T22:20:51.699Z,76.33
2023-11-23T22:23:18.417Z,75.70
2023-11-23T22:25:44.999Z,75.49
2023-11-23T22:28:11.659Z,74.83
2023-11-23T22:30:40.963Z,73.43
2023-11-23T22:33:08.222Z,72.97
2023-11-23T22:35:35.089Z,71.54
2023-11-23T22:38:06.665Z,71.22
2023-11-23T22:40:35.070Z,71.76
2023-11-23T22:43:01.758Z,71.55
2023-11-23T22:45:28.529Z,71.71
2023-11-23T22:47:54.944Z,71.99
2023-11-23T22:50:21.472Z,73.13
2023-11-23T22:52:47.850Z,74.96
2023-11-23T22:55:14.252Z,75.35
2023-11-23T22:57:40.951Z,75.25
2023-11-23T23:00:15.525Z,75.76
2023-11-23T23:02:42.010Z,75.59
2023-11-23T23:05:09.981Z,76.65
2023-11-23T23:07:37.272Z,75.65
2023-11-23T23:10:04.006Z,76.19
2023-11-23T23:12:30.470Z,76.70
2023-11-23T23:14:56.867Z,77.61
2023-11-23T23:17:23.326Z,77.24
2023-11-23T23:19:49.728Z,77.82
2023-11-23T23:22:24.355Z,77.85
2023-11-23T23:24:55.240Z,78.35
2023-11-23T23:27:21.767Z,79.41
2023-11-23T23:29:48.138Z,79.08
2023-11-23T23:32:14.571Z,78.04
2023-11-23T23:34:41.235Z,76.69
2023-11-23T23:37:08.298Z,76.57
2023-11-23T23:39:34.757Z,77.20
2023-11-23T23:42:01.146Z,77.18
2023-11-23T23:44:27.745Z,76.37
2023-11-23T23:46:56.736Z,76.65
2023-11-23T23:49:23.733Z,76.43
2023-11-23T23:51:51.587Z,76.92
2023-11-23T23:54:19.342Z,75.92
2023-11-23T23:56:45.867Z,76.11
2023-11-23T23:59:12.338Z,75.57
